sensor_id;sensor_type;location;lat;lon;timestamp;P1;durP1;ratioP1;P2;durP2;ratioP2
5533;SDS011;2789;51.902;7.636;2022-09-09T00:00:11;4.55;;;1.70;;
5533;SDS011;2789;51.902;7.636;2022-09-09T00:01:21;1.38;;;1.27;;
5533;SDS011;2789;51.902;7.636;2022-09-09T00:02:33;2.58;;;2.13;;
5533;SDS011;2789;51.902;7.636;2022-09-09T00:03:37;2.15;;;1.30;;
5533;SDS011;2789;51.902;7.636;2022-09-09T00:04:43;3.65;;;1.60;;
5533;SDS011;2789;51.902;7.636;2022-09-09T00:05:50;2.80;;;1.52;;
5533;SDS011;2789;51.902;7.636;2022-09-09T00:07:03;2.15;;;1.30;;
5533;SDS011;2789;51.902;7.636;2022-09-09T00:08:06;1.65;;;1.35;;
5533;SDS011;2789;51.902;7.636;2022-09-09T00:09:12;3.13;;;1.50;;
5533;SDS011;2789;51.902;7.636;2022-09-09T00:10:19;4.35;;;1.63;;
5533;SDS011;2789;51.902;7.636;2022-09-09T00:11:26;3.15;;;1.30;;
5533;SDS011;2789;51.902;7.636;2022-09-09T00:12:33;3.28;;;1.50;;
5533;SDS011;2789;51.902;7.636;2022-09-09T00:13:38;2.78;;;1.38;;
5533;SDS011;2789;51.902;7.636;2022-09-09T00:14:45;1.83;;;1.35;;
5533;SDS011;2789;51.902;7.636;2022-09-09T00:15:53;1.20;;;1.10;;
5533;SDS011;2789;51.902;7.636;2022-09-09T00:17:00;3.83;;;1.45;;
5533;SDS011;2789;51.902;7.636;2022-09-09T00:18:08;3.33;;;1.40;;
5533;SDS011;2789;51.902;7.636;2022-09-09T00:19:18;1.23;;;1.02;;
5533;SDS011;2789;51.902;7.636;2022-09-09T00:20:24;1.40;;;1.15;;
5533;SDS011;2789;51.902;7.636;2022-09-09T00:21:30;1.73;;;1.33;;
5533;SDS011;2789;51.902;7.636;2022-09-09T00:22:35;1.85;;;1.15;;
5533;SDS011;2789;51.902;7.636;2022-09-09T00:23:42;2.35;;;1.25;;
5533;SDS011;2789;51.902;7.636;2022-09-09T00:24:48;1.98;;;1.00;;
5533;SDS011;2789;51.902;7.636;2022-09-09T00:25:57;2.55;;;1.30;;
5533;SDS011;2789;51.902;7.636;2022-09-09T00:27:06;2.47;;;1.23;;
5533;SDS011;2789;51.902;7.636;2022-09-09T00:28:13;5.05;;;1.42;;
5533;SDS011;2789;51.902;7.636;2022-09-09T00:29:20;3.47;;;1.40;;
5533;SDS011;2789;51.902;7.636;2022-09-09T00:30:27;1.88;;;1.25;;
5533;SDS011;2789;51.902;7.636;2022-09-09T00:31:31;1.42;;;1.13;;
5533;SDS011;2789;51.902;7.636;2022-09-09T00:32:33;2.28;;;1.08;;
5533;SDS011;2789;51.902;7.636;2022-09-09T00:33:36;1.08;;;0.93;;
5533;SDS011;2789;51.902;7.636;2022-09-09T00:34:41;3.28;;;1.02;;
5533;SDS011;2789;51.902;7.636;2022-09-09T00:35:50;2.92;;;1.30;;
5533;SDS011;2789;51.902;7.636;2022-09-09T00:36:53;2.35;;;0.82;;
5533;SDS011;2789;51.902;7.636;2022-09-09T00:38:00;1.95;;;1.13;;
5533;SDS011;2789;51.902;7.636;2022-09-09T00:39:03;3.58;;;0.90;;
5533;SDS011;2789;51.902;7.636;2022-09-09T00:40:08;3.08;;;0.88;;
5533;SDS011;2789;51.902;7.636;2022-09-09T00:41:21;2.00;;;1.05;;
5533;SDS011;2789;51.902;7.636;2022-09-09T00:42:25;3.85;;;1.38;;
5533;SDS011;2789;51.902;7.636;2022-09-09T00:43:28;2.60;;;0.93;;
5533;SDS011;2789;51.902;7.636;2022-09-09T00:44:33;2.30;;;1.05;;
5533;SDS011;2789;51.902;7.636;2022-09-09T00:45:48;2.75;;;0.90;;
5533;SDS011;2789;51.902;7.636;2022-09-09T00:47:04;1.50;;;1.00;;
5533;SDS011;2789;51.902;7.636;2022-09-09T00:48:15;2.47;;;1.20;;
5533;SDS011;2789;51.902;7.636;2022-09-09T00:49:20;1.42;;;1.00;;
5533;SDS011;2789;51.902;7.636;2022-09-09T00:50:35;4.38;;;1.13;;
5533;SDS011;2789;51.902;7.636;2022-09-09T00:51:46;3.95;;;1.85;;
5533;SDS011;2789;51.902;7.636;2022-09-09T00:52:55;1.63;;;1.10;;
5533;SDS011;2789;51.902;7.636;2022-09-09T00:54:10;1.40;;;0.90;;
5533;SDS011;2789;51.902;7.636;2022-09-09T00:55:21;4.35;;;1.27;;
5533;SDS011;2789;51.902;7.636;2022-09-09T00:56:29;2.28;;;1.27;;
5533;SDS011;2789;51.902;7.636;2022-09-09T00:57:36;2.45;;;1.05;;
5533;SDS011;2789;51.902;7.636;2022-09-09T00:58:39;2.10;;;0.90;;
5533;SDS011;2789;51.902;7.636;2022-09-09T00:59:46;1.75;;;1.27;;
5533;SDS011;2789;51.902;7.636;2022-09-09T01:00:50;3.22;;;1.20;;
5533;SDS011;2789;51.902;7.636;2022-09-09T01:01:54;2.10;;;0.95;;
5533;SDS011;2789;51.902;7.636;2022-09-09T01:02:59;1.27;;;1.00;;
5533;SDS011;2789;51.902;7.636;2022-09-09T01:04:09;3.20;;;1.08;;
5533;SDS011;2789;51.902;7.636;2022-09-09T01:05:16;2.67;;;1.00;;
5533;SDS011;2789;51.902;7.636;2022-09-09T01:06:26;4.15;;;1.25;;
5533;SDS011;2789;51.902;7.636;2022-09-09T01:07:31;3.20;;;0.95;;
5533;SDS011;2789;51.902;7.636;2022-09-09T01:08:43;1.45;;;0.98;;
5533;SDS011;2789;51.902;7.636;2022-09-09T01:09:55;2.28;;;1.00;;
5533;SDS011;2789;51.902;7.636;2022-09-09T01:10:59;1.70;;;1.60;;
5533;SDS011;2789;51.902;7.636;2022-09-09T01:12:01;1.20;;;0.90;;
5533;SDS011;2789;51.902;7.636;2022-09-09T01:13:08;1.13;;;0.80;;
5533;SDS011;2789;51.902;7.636;2022-09-09T01:14:19;2.00;;;1.02;;
5533;SDS011;2789;51.902;7.636;2022-09-09T01:15:27;0.80;;;0.80;;
5533;SDS011;2789;51.902;7.636;2022-09-09T01:16:30;1.50;;;1.23;;
5533;SDS011;2789;51.902;7.636;2022-09-09T01:17:34;3.90;;;1.33;;
5533;SDS011;2789;51.902;7.636;2022-09-09T01:18:40;3.50;;;0.85;;
5533;SDS011;2789;51.902;7.636;2022-09-09T01:19:49;1.48;;;1.10;;
5533;SDS011;2789;51.902;7.636;2022-09-09T01:21:00;1.60;;;1.00;;
5533;SDS011;2789;51.902;7.636;2022-09-09T01:22:09;2.33;;;1.45;;
5533;SDS011;2789;51.902;7.636;2022-09-09T01:23:17;1.40;;;1.30;;
5533;SDS011;2789;51.902;7.636;2022-09-09T01:24:31;2.53;;;1.52;;
5533;SDS011;2789;51.902;7.636;2022-09-09T01:27:12;2.65;;;1.42;;
5533;SDS011;2789;51.902;7.636;2022-09-09T01:28:16;3.03;;;1.42;;
5533;SDS011;2789;51.902;7.636;2022-09-09T01:29:21;2.33;;;1.33;;
5533;SDS011;2789;51.902;7.636;2022-09-09T01:30:23;1.77;;;1.40;;
5533;SDS011;2789;51.902;7.636;2022-09-09T01:31:27;2.25;;;1.35;;
5533;SDS011;2789;51.902;7.636;2022-09-09T01:32:37;2.10;;;1.60;;
5533;SDS011;2789;51.902;7.636;2022-09-09T01:33:42;1.38;;;1.27;;
5533;SDS011;2789;51.902;7.636;2022-09-09T01:34:44;2.15;;;1.30;;
5533;SDS011;2789;51.902;7.636;2022-09-09T01:35:48;2.72;;;1.40;;
5533;SDS011;2789;51.902;7.636;2022-09-09T01:36:53;2.17;;;1.30;;
5533;SDS011;2789;51.902;7.636;2022-09-09T01:37:59;2.50;;;1.40;;
5533;SDS011;2789;51.902;7.636;2022-09-09T01:39:01;1.88;;;1.33;;
5533;SDS011;2789;51.902;7.636;2022-09-09T01:40:04;1.85;;;1.20;;
5533;SDS011;2789;51.902;7.636;2022-09-09T01:41:06;1.23;;;1.10;;
5533;SDS011;2789;51.902;7.636;2022-09-09T01:42:12;1.92;;;1.27;;
5533;SDS011;2789;51.902;7.636;2022-09-09T01:43:15;1.83;;;1.20;;
5533;SDS011;2789;51.902;7.636;2022-09-09T01:44:17;2.33;;;1.13;;
5533;SDS011;2789;51.902;7.636;2022-09-09T01:45:20;2.40;;;1.30;;
5533;SDS011;2789;51.902;7.636;2022-09-09T01:46:23;2.55;;;1.30;;
5533;SDS011;2789;51.902;7.636;2022-09-09T01:47:25;1.42;;;1.02;;
5533;SDS011;2789;51.902;7.636;2022-09-09T01:48:29;3.17;;;1.17;;
5533;SDS011;2789;51.902;7.636;2022-09-09T01:49:31;1.45;;;1.10;;
5533;SDS011;2789;51.902;7.636;2022-09-09T01:50:33;1.08;;;1.08;;
5533;SDS011;2789;51.902;7.636;2022-09-09T01:51:35;1.80;;;1.30;;
5533;SDS011;2789;51.902;7.636;2022-09-09T01:52:41;2.47;;;1.02;;
5533;SDS011;2789;51.902;7.636;2022-09-09T01:53:43;1.50;;;1.00;;
5533;SDS011;2789;51.902;7.636;2022-09-09T01:54:46;2.17;;;1.20;;
5533;SDS011;2789;51.902;7.636;2022-09-09T01:55:50;1.10;;;1.00;;
5533;SDS011;2789;51.902;7.636;2022-09-09T01:57:01;2.60;;;1.48;;
5533;SDS011;2789;51.902;7.636;2022-09-09T01:58:11;1.77;;;1.35;;
5533;SDS011;2789;51.902;7.636;2022-09-09T01:59:29;2.10;;;0.90;;
5533;SDS011;2789;51.902;7.636;2022-09-09T02:00:41;2.33;;;1.20;;
5533;SDS011;2789;51.902;7.636;2022-09-09T02:01:49;1.98;;;1.10;;
5533;SDS011;2789;51.902;7.636;2022-09-09T02:02:59;1.42;;;0.80;;
5533;SDS011;2789;51.902;7.636;2022-09-09T02:04:08;1.80;;;1.48;;
5533;SDS011;2789;51.902;7.636;2022-09-09T02:05:17;1.70;;;1.15;;
5533;SDS011;2789;51.902;7.636;2022-09-09T02:06:26;1.52;;;1.38;;
5533;SDS011;2789;51.902;7.636;2022-09-09T02:07:34;1.58;;;1.40;;
5533;SDS011;2789;51.902;7.636;2022-09-09T02:08:42;2.63;;;1.48;;
5533;SDS011;2789;51.902;7.636;2022-09-09T02:09:46;1.40;;;1.30;;
5533;SDS011;2789;51.902;7.636;2022-09-09T02:10:51;2.35;;;1.60;;
5533;SDS011;2789;51.902;7.636;2022-09-09T02:11:57;2.55;;;1.30;;
5533;SDS011;2789;51.902;7.636;2022-09-09T02:13:05;2.95;;;1.30;;
5533;SDS011;2789;51.902;7.636;2022-09-09T02:14:12;1.40;;;1.20;;
5533;SDS011;2789;51.902;7.636;2022-09-09T02:15:17;2.28;;;1.00;;
5533;SDS011;2789;51.902;7.636;2022-09-09T02:16:26;2.28;;;1.30;;
5533;SDS011;2789;51.902;7.636;2022-09-09T02:17:30;2.45;;;1.15;;
5533;SDS011;2789;51.902;7.636;2022-09-09T02:18:35;1.95;;;1.38;;
5533;SDS011;2789;51.902;7.636;2022-09-09T02:19:42;2.40;;;1.55;;
5533;SDS011;2789;51.902;7.636;2022-09-09T02:20:49;2.55;;;1.30;;
5533;SDS011;2789;51.902;7.636;2022-09-09T02:21:52;1.50;;;1.20;;
5533;SDS011;2789;51.902;7.636;2022-09-09T02:22:58;1.83;;;1.48;;
5533;SDS011;2789;51.902;7.636;2022-09-09T02:24:01;2.05;;;1.35;;
5533;SDS011;2789;51.902;7.636;2022-09-09T02:25:07;2.60;;;1.58;;
5533;SDS011;2789;51.902;7.636;2022-09-09T02:26:10;3.60;;;1.33;;
5533;SDS011;2789;51.902;7.636;2022-09-09T02:27:15;1.88;;;1.10;;
5533;SDS011;2789;51.902;7.636;2022-09-09T02:28:17;3.15;;;1.77;;
5533;SDS011;2789;51.902;7.636;2022-09-09T02:29:22;1.58;;;1.48;;
5533;SDS011;2789;51.902;7.636;2022-09-09T02:30:26;2.15;;;1.30;;
5533;SDS011;2789;51.902;7.636;2022-09-09T02:31:30;1.30;;;1.20;;
5533;SDS011;2789;51.902;7.636;2022-09-09T02:32:33;1.55;;;1.27;;
5533;SDS011;2789;51.902;7.636;2022-09-09T02:33:38;1.50;;;1.38;;
5533;SDS011;2789;51.902;7.636;2022-09-09T02:34:43;4.00;;;1.45;;
5533;SDS011;2789;51.902;7.636;2022-09-09T02:35:47;1.83;;;1.23;;
5533;SDS011;2789;51.902;7.636;2022-09-09T02:36:49;3.60;;;1.40;;
5533;SDS011;2789;51.902;7.636;2022-09-09T02:37:53;2.22;;;1.40;;
5533;SDS011;2789;51.902;7.636;2022-09-09T02:38:56;2.42;;;1.48;;
5533;SDS011;2789;51.902;7.636;2022-09-09T02:39:59;1.50;;;1.40;;
5533;SDS011;2789;51.902;7.636;2022-09-09T02:41:00;3.45;;;1.50;;
5533;SDS011;2789;51.902;7.636;2022-09-09T02:42:03;1.77;;;1.40;;
5533;SDS011;2789;51.902;7.636;2022-09-09T02:43:07;1.60;;;1.42;;
5533;SDS011;2789;51.902;7.636;2022-09-09T02:44:09;5.65;;;1.60;;
5533;SDS011;2789;51.902;7.636;2022-09-09T02:45:13;1.50;;;1.13;;
5533;SDS011;2789;51.902;7.636;2022-09-09T02:47:38;1.52;;;1.38;;
5533;SDS011;2789;51.902;7.636;2022-09-09T02:48:47;2.17;;;1.55;;
5533;SDS011;2789;51.902;7.636;2022-09-09T02:49:55;2.10;;;1.70;;
5533;SDS011;2789;51.902;7.636;2022-09-09T02:51:08;2.58;;;1.52;;
5533;SDS011;2789;51.902;7.636;2022-09-09T02:52:13;2.33;;;1.35;;
5533;SDS011;2789;51.902;7.636;2022-09-09T02:53:18;1.70;;;1.50;;
5533;SDS011;2789;51.902;7.636;2022-09-09T02:54:22;3.20;;;1.52;;
5533;SDS011;2789;51.902;7.636;2022-09-09T02:55:32;2.45;;;1.70;;
5533;SDS011;2789;51.902;7.636;2022-09-09T02:56:40;3.90;;;1.92;;
5533;SDS011;2789;51.902;7.636;2022-09-09T02:57:45;2.60;;;1.80;;
5533;SDS011;2789;51.902;7.636;2022-09-09T02:58:50;3.15;;;1.95;;
5533;SDS011;2789;51.902;7.636;2022-09-09T02:59:52;4.35;;;2.17;;
5533;SDS011;2789;51.902;7.636;2022-09-09T03:00:56;2.88;;;1.85;;
5533;SDS011;2789;51.902;7.636;2022-09-09T03:01:59;2.90;;;1.98;;
5533;SDS011;2789;51.902;7.636;2022-09-09T03:03:02;2.33;;;1.90;;
5533;SDS011;2789;51.902;7.636;2022-09-09T03:04:04;3.55;;;2.10;;
5533;SDS011;2789;51.902;7.636;2022-09-09T03:05:07;4.13;;;2.28;;
5533;SDS011;2789;51.902;7.636;2022-09-09T03:06:12;3.13;;;2.40;;
5533;SDS011;2789;51.902;7.636;2022-09-09T03:07:15;5.57;;;2.67;;
5533;SDS011;2789;51.902;7.636;2022-09-09T03:08:18;3.50;;;3.20;;
5533;SDS011;2789;51.902;7.636;2022-09-09T03:09:20;4.57;;;2.97;;
5533;SDS011;2789;51.902;7.636;2022-09-09T03:10:22;2.60;;;2.10;;
5533;SDS011;2789;51.902;7.636;2022-09-09T03:11:25;2.78;;;2.58;;
5533;SDS011;2789;51.902;7.636;2022-09-09T03:12:26;4.10;;;2.88;;
5533;SDS011;2789;51.902;7.636;2022-09-09T03:13:29;3.30;;;2.40;;
5533;SDS011;2789;51.902;7.636;2022-09-09T03:14:32;3.03;;;2.72;;
5533;SDS011;2789;51.902;7.636;2022-09-09T03:15:34;3.15;;;2.85;;
5533;SDS011;2789;51.902;7.636;2022-09-09T03:16:36;6.22;;;3.03;;
5533;SDS011;2789;51.902;7.636;2022-09-09T03:17:39;3.00;;;2.70;;
5533;SDS011;2789;51.902;7.636;2022-09-09T03:18:41;4.82;;;3.00;;
5533;SDS011;2789;51.902;7.636;2022-09-09T03:19:43;3.85;;;2.65;;
5533;SDS011;2789;51.902;7.636;2022-09-09T03:20:45;3.88;;;2.97;;
5533;SDS011;2789;51.902;7.636;2022-09-09T03:21:49;4.78;;;2.85;;
5533;SDS011;2789;51.902;7.636;2022-09-09T03:22:51;3.45;;;2.90;;
5533;SDS011;2789;51.902;7.636;2022-09-09T03:23:53;4.97;;;3.35;;
5533;SDS011;2789;51.902;7.636;2022-09-09T03:24:55;3.83;;;3.10;;
5533;SDS011;2789;51.902;7.636;2022-09-09T03:25:58;3.95;;;3.25;;
5533;SDS011;2789;51.902;7.636;2022-09-09T03:26:59;3.70;;;2.97;;
5533;SDS011;2789;51.902;7.636;2022-09-09T03:28:02;4.05;;;3.65;;
5533;SDS011;2789;51.902;7.636;2022-09-09T03:29:03;3.53;;;3.20;;
5533;SDS011;2789;51.902;7.636;2022-09-09T03:30:09;4.07;;;2.92;;
5533;SDS011;2789;51.902;7.636;2022-09-09T03:31:12;4.05;;;3.03;;
5533;SDS011;2789;51.902;7.636;2022-09-09T03:32:14;4.88;;;3.35;;
5533;SDS011;2789;51.902;7.636;2022-09-09T03:33:18;7.95;;;3.53;;
5533;SDS011;2789;51.902;7.636;2022-09-09T03:34:21;3.50;;;3.20;;
5533;SDS011;2789;51.902;7.636;2022-09-09T03:35:22;3.80;;;3.25;;
5533;SDS011;2789;51.902;7.636;2022-09-09T03:36:25;5.80;;;3.45;;
5533;SDS011;2789;51.902;7.636;2022-09-09T03:37:29;5.38;;;3.83;;
5533;SDS011;2789;51.902;7.636;2022-09-09T03:38:30;4.43;;;3.20;;
5533;SDS011;2789;51.902;7.636;2022-09-09T03:39:33;5.93;;;3.22;;
5533;SDS011;2789;51.902;7.636;2022-09-09T03:40:35;4.25;;;3.20;;
5533;SDS011;2789;51.902;7.636;2022-09-09T03:41:37;3.58;;;3.17;;
5533;SDS011;2789;51.902;7.636;2022-09-09T03:42:39;3.25;;;2.95;;
5533;SDS011;2789;51.902;7.636;2022-09-09T03:43:42;4.75;;;3.25;;
5533;SDS011;2789;51.902;7.636;2022-09-09T03:44:44;6.43;;;3.10;;
5533;SDS011;2789;51.902;7.636;2022-09-09T03:45:50;5.30;;;3.15;;
5533;SDS011;2789;51.902;7.636;2022-09-09T03:46:52;3.33;;;2.65;;
5533;SDS011;2789;51.902;7.636;2022-09-09T03:47:55;4.80;;;3.55;;
5533;SDS011;2789;51.902;7.636;2022-09-09T03:48:58;3.65;;;2.78;;
5533;SDS011;2789;51.902;7.636;2022-09-09T03:50:01;4.00;;;3.38;;
5533;SDS011;2789;51.902;7.636;2022-09-09T03:51:03;5.03;;;3.80;;
5533;SDS011;2789;51.902;7.636;2022-09-09T03:52:05;3.22;;;2.90;;
5533;SDS011;2789;51.902;7.636;2022-09-09T03:53:07;4.63;;;3.22;;
5533;SDS011;2789;51.902;7.636;2022-09-09T03:54:10;3.67;;;3.00;;
5533;SDS011;2789;51.902;7.636;2022-09-09T03:55:12;3.45;;;2.88;;
5533;SDS011;2789;51.902;7.636;2022-09-09T03:56:15;4.72;;;3.17;;
5533;SDS011;2789;51.902;7.636;2022-09-09T03:57:16;4.68;;;3.40;;
5533;SDS011;2789;51.902;7.636;2022-09-09T03:58:19;3.22;;;2.92;;
5533;SDS011;2789;51.902;7.636;2022-09-09T03:59:22;3.40;;;2.80;;
5533;SDS011;2789;51.902;7.636;2022-09-09T04:00:24;5.78;;;3.05;;
5533;SDS011;2789;51.902;7.636;2022-09-09T04:01:27;3.38;;;2.92;;
5533;SDS011;2789;51.902;7.636;2022-09-09T04:02:30;3.35;;;3.03;;
5533;SDS011;2789;51.902;7.636;2022-09-09T04:03:32;6.05;;;2.97;;
5533;SDS011;2789;51.902;7.636;2022-09-09T04:04:35;6.07;;;3.53;;
5533;SDS011;2789;51.902;7.636;2022-09-09T04:05:36;3.40;;;2.80;;
5533;SDS011;2789;51.902;7.636;2022-09-09T04:06:43;3.78;;;2.97;;
5533;SDS011;2789;51.902;7.636;2022-09-09T04:07:44;5.40;;;3.00;;
5533;SDS011;2789;51.902;7.636;2022-09-09T04:08:47;7.32;;;3.45;;
5533;SDS011;2789;51.902;7.636;2022-09-09T04:09:50;4.47;;;3.22;;
5533;SDS011;2789;51.902;7.636;2022-09-09T04:10:53;3.75;;;2.80;;
5533;SDS011;2789;51.902;7.636;2022-09-09T04:11:59;4.05;;;2.70;;
5533;SDS011;2789;51.902;7.636;2022-09-09T04:13:02;4.68;;;2.60;;
5533;SDS011;2789;51.902;7.636;2022-09-09T04:14:04;3.75;;;2.83;;
5533;SDS011;2789;51.902;7.636;2022-09-09T04:15:07;4.97;;;2.72;;
5533;SDS011;2789;51.902;7.636;2022-09-09T04:16:09;4.80;;;2.85;;
5533;SDS011;2789;51.902;7.636;2022-09-09T04:17:16;10.07;;;2.80;;
5533;SDS011;2789;51.902;7.636;2022-09-09T04:18:18;5.10;;;3.03;;
5533;SDS011;2789;51.902;7.636;2022-09-09T04:19:21;3.28;;;2.88;;
5533;SDS011;2789;51.902;7.636;2022-09-09T04:20:23;4.47;;;3.28;;
5533;SDS011;2789;51.902;7.636;2022-09-09T04:21:26;4.13;;;3.17;;
5533;SDS011;2789;51.902;7.636;2022-09-09T04:22:27;4.03;;;3.17;;
5533;SDS011;2789;51.902;7.636;2022-09-09T04:23:30;3.63;;;2.45;;
5533;SDS011;2789;51.902;7.636;2022-09-09T04:24:31;6.82;;;2.88;;
5533;SDS011;2789;51.902;7.636;2022-09-09T04:25:34;4.43;;;2.78;;
5533;SDS011;2789;51.902;7.636;2022-09-09T04:26:36;3.00;;;2.30;;
5533;SDS011;2789;51.902;7.636;2022-09-09T04:27:39;5.60;;;2.38;;
5533;SDS011;2789;51.902;7.636;2022-09-09T04:28:41;5.45;;;2.90;;
5533;SDS011;2789;51.902;7.636;2022-09-09T04:29:43;17.20;;;3.58;;
5533;SDS011;2789;51.902;7.636;2022-09-09T04:30:45;2.60;;;2.40;;
5533;SDS011;2789;51.902;7.636;2022-09-09T04:31:48;2.60;;;2.33;;
5533;SDS011;2789;51.902;7.636;2022-09-09T04:32:51;3.85;;;2.53;;
5533;SDS011;2789;51.902;7.636;2022-09-09T04:33:54;4.13;;;2.55;;
5533;SDS011;2789;51.902;7.636;2022-09-09T04:34:55;6.35;;;2.70;;
5533;SDS011;2789;51.902;7.636;2022-09-09T04:35:58;5.80;;;2.47;;
5533;SDS011;2789;51.902;7.636;2022-09-09T04:37:00;3.10;;;2.55;;
5533;SDS011;2789;51.902;7.636;2022-09-09T04:38:03;2.92;;;2.67;;
5533;SDS011;2789;51.902;7.636;2022-09-09T04:39:05;3.10;;;2.80;;
5533;SDS011;2789;51.902;7.636;2022-09-09T04:40:08;2.90;;;2.60;;
5533;SDS011;2789;51.902;7.636;2022-09-09T04:41:11;4.22;;;2.20;;
5533;SDS011;2789;51.902;7.636;2022-09-09T04:42:14;4.07;;;2.45;;
5533;SDS011;2789;51.902;7.636;2022-09-09T04:43:15;4.45;;;2.40;;
5533;SDS011;2789;51.902;7.636;2022-09-09T04:44:19;4.93;;;3.17;;
5533;SDS011;2789;51.902;7.636;2022-09-09T04:45:21;3.22;;;2.30;;
5533;SDS011;2789;51.902;7.636;2022-09-09T04:46:23;4.25;;;2.17;;
5533;SDS011;2789;51.902;7.636;2022-09-09T04:47:26;2.67;;;2.13;;
5533;SDS011;2789;51.902;7.636;2022-09-09T04:48:29;8.10;;;2.63;;
5533;SDS011;2789;51.902;7.636;2022-09-09T04:49:32;4.15;;;2.40;;
5533;SDS011;2789;51.902;7.636;2022-09-09T04:50:33;2.92;;;2.40;;
5533;SDS011;2789;51.902;7.636;2022-09-09T04:51:36;7.35;;;3.10;;
5533;SDS011;2789;51.902;7.636;2022-09-09T04:52:38;5.07;;;1.98;;
5533;SDS011;2789;51.902;7.636;2022-09-09T04:53:40;4.53;;;2.75;;
5533;SDS011;2789;51.902;7.636;2022-09-09T04:54:43;3.80;;;2.30;;
5533;SDS011;2789;51.902;7.636;2022-09-09T04:55:45;4.15;;;2.67;;
5533;SDS011;2789;51.902;7.636;2022-09-09T04:56:49;3.22;;;2.90;;
5533;SDS011;2789;51.902;7.636;2022-09-09T04:57:52;5.55;;;2.80;;
5533;SDS011;2789;51.902;7.636;2022-09-09T04:58:54;3.42;;;2.20;;
5533;SDS011;2789;51.902;7.636;2022-09-09T04:59:57;4.88;;;3.08;;
5533;SDS011;2789;51.902;7.636;2022-09-09T05:01:03;6.57;;;2.72;;
5533;SDS011;2789;51.902;7.636;2022-09-09T05:02:07;8.00;;;2.80;;
5533;SDS011;2789;51.902;7.636;2022-09-09T05:03:08;3.95;;;2.63;;
5533;SDS011;2789;51.902;7.636;2022-09-09T05:04:13;4.85;;;2.80;;
5533;SDS011;2789;51.902;7.636;2022-09-09T05:05:15;3.83;;;2.50;;
5533;SDS011;2789;51.902;7.636;2022-09-09T05:06:18;3.22;;;2.40;;
5533;SDS011;2789;51.902;7.636;2022-09-09T05:07:21;4.03;;;2.53;;
5533;SDS011;2789;51.902;7.636;2022-09-09T05:08:24;7.72;;;2.60;;
5533;SDS011;2789;51.902;7.636;2022-09-09T05:09:25;5.00;;;2.40;;
5533;SDS011;2789;51.902;7.636;2022-09-09T05:10:28;1.95;;;1.48;;
5533;SDS011;2789;51.902;7.636;2022-09-09T05:11:30;3.20;;;2.10;;
5533;SDS011;2789;51.902;7.636;2022-09-09T05:12:33;2.55;;;2.25;;
5533;SDS011;2789;51.902;7.636;2022-09-09T05:13:35;3.05;;;2.42;;
5533;SDS011;2789;51.902;7.636;2022-09-09T05:14:41;4.65;;;2.35;;
5533;SDS011;2789;51.902;7.636;2022-09-09T05:15:50;2.63;;;2.17;;
5533;SDS011;2789;51.902;7.636;2022-09-09T05:16:54;3.28;;;2.10;;
5533;SDS011;2789;51.902;7.636;2022-09-09T05:17:58;15.63;;;2.90;;
5533;SDS011;2789;51.902;7.636;2022-09-09T05:19:01;7.32;;;2.40;;
5533;SDS011;2789;51.902;7.636;2022-09-09T05:20:06;4.95;;;2.63;;
5533;SDS011;2789;51.902;7.636;2022-09-09T05:21:12;3.15;;;2.85;;
5533;SDS011;2789;51.902;7.636;2022-09-09T05:22:18;3.97;;;2.22;;
5533;SDS011;2789;51.902;7.636;2022-09-09T05:23:20;4.53;;;2.30;;
5533;SDS011;2789;51.902;7.636;2022-09-09T05:24:23;2.47;;;2.05;;
5533;SDS011;2789;51.902;7.636;2022-09-09T05:25:25;3.28;;;2.55;;
5533;SDS011;2789;51.902;7.636;2022-09-09T05:26:28;5.80;;;2.40;;
5533;SDS011;2789;51.902;7.636;2022-09-09T05:27:30;3.25;;;2.20;;
5533;SDS011;2789;51.902;7.636;2022-09-09T05:28:33;4.00;;;2.25;;
5533;SDS011;2789;51.902;7.636;2022-09-09T05:29:36;3.58;;;2.20;;
5533;SDS011;2789;51.902;7.636;2022-09-09T05:30:39;2.65;;;1.80;;
5533;SDS011;2789;51.902;7.636;2022-09-09T05:31:40;2.72;;;1.83;;
5533;SDS011;2789;51.902;7.636;2022-09-09T05:32:43;3.25;;;1.98;;
5533;SDS011;2789;51.902;7.636;2022-09-09T05:33:45;4.03;;;2.20;;
5533;SDS011;2789;51.902;7.636;2022-09-09T05:34:50;2.88;;;2.08;;
5533;SDS011;2789;51.902;7.636;2022-09-09T05:35:57;5.30;;;1.90;;
5533;SDS011;2789;51.902;7.636;2022-09-09T05:37:01;2.28;;;2.00;;
5533;SDS011;2789;51.902;7.636;2022-09-09T05:38:02;5.15;;;2.85;;
5533;SDS011;2789;51.902;7.636;2022-09-09T05:39:05;2.95;;;2.35;;
5533;SDS011;2789;51.902;7.636;2022-09-09T05:40:07;6.63;;;2.15;;
5533;SDS011;2789;51.902;7.636;2022-09-09T05:41:11;4.38;;;2.15;;
5533;SDS011;2789;51.902;7.636;2022-09-09T05:42:13;5.47;;;2.47;;
5533;SDS011;2789;51.902;7.636;2022-09-09T05:43:16;3.90;;;2.00;;
5533;SDS011;2789;51.902;7.636;2022-09-09T05:44:17;2.63;;;1.85;;
5533;SDS011;2789;51.902;7.636;2022-09-09T05:45:20;3.47;;;1.90;;
5533;SDS011;2789;51.902;7.636;2022-09-09T05:46:23;5.97;;;2.45;;
5533;SDS011;2789;51.902;7.636;2022-09-09T05:47:27;4.38;;;1.90;;
5533;SDS011;2789;51.902;7.636;2022-09-09T05:48:29;3.55;;;1.75;;
5533;SDS011;2789;51.902;7.636;2022-09-09T05:49:33;3.45;;;2.17;;
5533;SDS011;2789;51.902;7.636;2022-09-09T05:50:35;4.63;;;2.03;;
5533;SDS011;2789;51.902;7.636;2022-09-09T05:51:38;3.88;;;1.98;;
5533;SDS011;2789;51.902;7.636;2022-09-09T05:52:41;3.92;;;2.00;;
5533;SDS011;2789;51.902;7.636;2022-09-09T05:53:43;3.78;;;2.00;;
5533;SDS011;2789;51.902;7.636;2022-09-09T05:54:46;3.35;;;2.00;;
5533;SDS011;2789;51.902;7.636;2022-09-09T05:55:47;8.07;;;2.22;;
5533;SDS011;2789;51.902;7.636;2022-09-09T05:56:50;4.68;;;2.30;;
5533;SDS011;2789;51.902;7.636;2022-09-09T05:57:52;6.15;;;2.72;;
5533;SDS011;2789;51.902;7.636;2022-09-09T05:58:55;3.90;;;2.03;;
5533;SDS011;2789;51.902;7.636;2022-09-09T05:59:57;3.10;;;2.13;;
5533;SDS011;2789;51.902;7.636;2022-09-09T06:01:01;2.75;;;2.20;;
5533;SDS011;2789;51.902;7.636;2022-09-09T06:02:04;7.25;;;2.30;;
5533;SDS011;2789;51.902;7.636;2022-09-09T06:03:06;4.32;;;2.60;;
5533;SDS011;2789;51.902;7.636;2022-09-09T06:04:11;3.72;;;2.20;;
5533;SDS011;2789;51.902;7.636;2022-09-09T06:05:14;5.32;;;1.85;;
5533;SDS011;2789;51.902;7.636;2022-09-09T06:06:16;2.30;;;2.10;;
5533;SDS011;2789;51.902;7.636;2022-09-09T06:07:23;7.55;;;2.63;;
5533;SDS011;2789;51.902;7.636;2022-09-09T06:08:24;5.00;;;2.53;;
5533;SDS011;2789;51.902;7.636;2022-09-09T06:09:27;3.35;;;2.13;;
5533;SDS011;2789;51.902;7.636;2022-09-09T06:10:31;4.45;;;2.53;;
5533;SDS011;2789;51.902;7.636;2022-09-09T06:11:35;4.35;;;1.85;;
5533;SDS011;2789;51.902;7.636;2022-09-09T06:12:37;4.05;;;1.98;;
5533;SDS011;2789;51.902;7.636;2022-09-09T06:13:40;4.25;;;2.35;;
5533;SDS011;2789;51.902;7.636;2022-09-09T06:14:42;4.57;;;2.00;;
5533;SDS011;2789;51.902;7.636;2022-09-09T06:15:50;4.22;;;1.80;;
5533;SDS011;2789;51.902;7.636;2022-09-09T06:16:52;1.88;;;1.70;;
5533;SDS011;2789;51.902;7.636;2022-09-09T06:17:54;3.47;;;1.98;;
5533;SDS011;2789;51.902;7.636;2022-09-09T06:18:56;3.85;;;2.22;;
5533;SDS011;2789;51.902;7.636;2022-09-09T06:19:59;2.95;;;1.88;;
5533;SDS011;2789;51.902;7.636;2022-09-09T06:21:03;4.68;;;2.20;;
5533;SDS011;2789;51.902;7.636;2022-09-09T06:22:07;6.38;;;2.10;;
5533;SDS011;2789;51.902;7.636;2022-09-09T06:23:12;4.25;;;2.35;;
5533;SDS011;2789;51.902;7.636;2022-09-09T06:24:14;7.20;;;1.83;;
5533;SDS011;2789;51.902;7.636;2022-09-09T06:25:20;3.38;;;1.50;;
5533;SDS011;2789;51.902;7.636;2022-09-09T06:26:22;3.70;;;1.60;;
5533;SDS011;2789;51.902;7.636;2022-09-09T06:27:27;5.68;;;2.15;;
5533;SDS011;2789;51.902;7.636;2022-09-09T06:28:29;4.95;;;1.95;;
5533;SDS011;2789;51.902;7.636;2022-09-09T06:29:31;5.07;;;1.80;;
5533;SDS011;2789;51.902;7.636;2022-09-09T06:30:33;2.92;;;1.90;;
5533;SDS011;2789;51.902;7.636;2022-09-09T06:31:35;6.45;;;2.25;;
5533;SDS011;2789;51.902;7.636;2022-09-09T06:32:38;2.25;;;1.35;;
5533;SDS011;2789;51.902;7.636;2022-09-09T06:33:40;3.35;;;1.80;;
5533;SDS011;2789;51.902;7.636;2022-09-09T06:34:45;3.90;;;2.13;;
5533;SDS011;2789;51.902;7.636;2022-09-09T06:35:50;2.83;;;1.50;;
5533;SDS011;2789;51.902;7.636;2022-09-09T06:36:54;4.40;;;1.92;;
5533;SDS011;2789;51.902;7.636;2022-09-09T06:37:59;2.95;;;1.90;;
5533;SDS011;2789;51.902;7.636;2022-09-09T06:39:03;4.53;;;2.55;;
5533;SDS011;2789;51.902;7.636;2022-09-09T06:40:06;1.83;;;1.70;;
5533;SDS011;2789;51.902;7.636;2022-09-09T06:41:09;4.97;;;1.60;;
5533;SDS011;2789;51.902;7.636;2022-09-09T06:42:12;4.25;;;1.90;;